sensor_id;sensor_type;location;lat;lon;timestamp;temperature;humidity
7704;DHT22;3894;49.700;10.770;2023-04-24T00:00:59;11.90;99.90
7704;DHT22;3894;49.700;10.770;2023-04-24T00:03:26;11.90;99.90
7704;DHT22;3894;49.700;10.770;2023-04-24T00:05:56;11.90;99.90
7704;DHT22;3894;49.700;10.770;2023-04-24T00:08:24;11.90;99.90
7704;DHT22;3894;49.700;10.770;2023-04-24T00:10:49;11.90;99.90
7704;DHT22;3894;49.700;10.770;2023-04-24T00:13:18;11.90;99.90
7704;DHT22;3894;49.700;10.770;2023-04-24T00:15:44;11.90;99.90
7704;DHT22;3894;49.700;10.770;2023-04-24T00:18:09;12.00;99.90
7704;DHT22;3894;49.700;10.770;2023-04-24T00:20:35;12.00;99.90
7704;DHT22;3894;49.700;10.770;2023-04-24T00:23:01;12.00;99.90
7704;DHT22;3894;49.700;10.770;2023-04-24T00:25:27;12.00;99.90
7704;DHT22;3894;49.700;10.770;2023-04-24T00:27:53;12.00;99.90
7704;DHT22;3894;49.700;10.770;2023-04-24T00:30:18;12.10;99.90
7704;DHT22;3894;49.700;10.770;2023-04-24T00:32:44;12.10;99.90
7704;DHT22;3894;49.700;10.770;2023-04-24T00:35:10;12.10;99.90
7704;DHT22;3894;49.700;10.770;2023-04-24T00:37:36;12.10;99.90
7704;DHT22;3894;49.700;10.770;2023-04-24T00:40:01;12.10;99.90
7704;DHT22;3894;49.700;10.770;2023-04-24T00:42:28;12.00;99.90
7704;DHT22;3894;49.700;10.770;2023-04-24T00:44:54;12.00;99.90
7704;DHT22;3894;49.700;10.770;2023-04-24T00:47:26;12.00;99.90
7704;DHT22;3894;49.700;10.770;2023-04-24T00:49:55;12.00;99.90
7704;DHT22;3894;49.700;10.770;2023-04-24T00:52:21;12.00;99.90
7704;DHT22;3894;49.700;10.770;2023-04-24T00:54:49;12.00;99.90
7704;DHT22;3894;49.700;10.770;2023-04-24T00:57:15;12.00;99.90
7704;DHT22;3894;49.700;10.770;2023-04-24T00:59:42;12.00;99.90
7704;DHT22;3894;49.700;10.770;2023-04-24T01:02:11;11.90;99.90
7704;DHT22;3894;49.700;10.770;2023-04-24T01:04:41;11.90;99.90
7704;DHT22;3894;49.700;10.770;2023-04-24T01:07:07;11.90;99.90
7704;DHT22;3894;49.700;10.770;2023-04-24T01:09:37;11.90;99.90
7704;DHT22;3894;49.700;10.770;2023-04-24T01:12:05;11.90;99.90
7704;DHT22;3894;49.700;10.770;2023-04-24T01:14:31;11.90;99.90
7704;DHT22;3894;49.700;10.770;2023-04-24T01:16:59;11.80;99.90
7704;DHT22;3894;49.700;10.770;2023-04-24T01:19:28;11.80;99.90
7704;DHT22;3894;49.700;10.770;2023-04-24T01:21:58;11.80;99.90
7704;DHT22;3894;49.700;10.770;2023-04-24T01:24:33;11.80;99.90
7704;DHT22;3894;49.700;10.770;2023-04-24T01:26:59;11.80;99.90
7704;DHT22;3894;49.700;10.770;2023-04-24T01:29:26;11.80;99.90
7704;DHT22;3894;49.700;10.770;2023-04-24T01:31:52;11.70;99.90
7704;DHT22;3894;49.700;10.770;2023-04-24T01:34:18;11.70;99.90
7704;DHT22;3894;49.700;10.770;2023-04-24T01:36:45;11.70;99.90
7704;DHT22;3894;49.700;10.770;2023-04-24T01:39:11;11.70;99.90
7704;DHT22;3894;49.700;10.770;2023-04-24T01:41:37;11.70;99.90
7704;DHT22;3894;49.700;10.770;2023-04-24T01:44:03;11.70;99.90
7704;DHT22;3894;49.700;10.770;2023-04-24T01:46:29;11.60;99.90
7704;DHT22;3894;49.700;10.770;2023-04-24T01:48:58;11.60;99.90
7704;DHT22;3894;49.700;10.770;2023-04-24T01:51:33;11.50;99.90
7704;DHT22;3894;49.700;10.770;2023-04-24T01:53:58;11.50;99.90
7704;DHT22;3894;49.700;10.770;2023-04-24T01:56:25;11.50;99.90
7704;DHT22;3894;49.700;10.770;2023-04-24T01:58:52;11.50;99.90
7704;DHT22;3894;49.700;10.770;2023-04-24T02:01:23;11.50;99.90
7704;DHT22;3894;49.700;10.770;2023-04-24T02:03:49;11.50;99.90
7704;DHT22;3894;49.700;10.770;2023-04-24T02:06:15;11.50;99.90
7704;DHT22;3894;49.700;10.770;2023-04-24T02:08:41;11.50;99.90
7704;DHT22;3894;49.700;10.770;2023-04-24T02:11:10;11.50;99.90
7704;DHT22;3894;49.700;10.770;2023-04-24T02:13:36;11.50;99.90
7704;DHT22;3894;49.700;10.770;2023-04-24T02:16:01;11.50;99.90
7704;DHT22;3894;49.700;10.770;2023-04-24T02:18:27;11.40;99.90
7704;DHT22;3894;49.700;10.770;2023-04-24T02:20:53;11.40;99.90
7704;DHT22;3894;49.700;10.770;2023-04-24T02:23:19;11.40;99.90
7704;DHT22;3894;49.700;10.770;2023-04-24T02:25:52;11.40;99.90
7704;DHT22;3894;49.700;10.770;2023-04-24T02:28:21;11.40;99.90
7704;DHT22;3894;49.700;10.770;2023-04-24T02:30:47;11.40;99.90
7704;DHT22;3894;49.700;10.770;2023-04-24T02:33:19;11.50;99.90
7704;DHT22;3894;49.700;10.770;2023-04-24T02:35:45;11.50;99.90
7704;DHT22;3894;49.700;10.770;2023-04-24T02:38:18;11.40;99.90
7704;DHT22;3894;49.700;10.770;2023-04-24T02:40:44;11.40;99.90
7704;DHT22;3894;49.700;10.770;2023-04-24T02:43:10;11.40;99.90
7704;DHT22;3894;49.700;10.770;2023-04-24T02:45:35;11.30;99.90
7704;DHT22;3894;49.700;10.770;2023-04-24T02:48:07;11.30;99.90
7704;DHT22;3894;49.700;10.770;2023-04-24T02:50:33;11.30;99.90
7704;DHT22;3894;49.700;10.770;2023-04-24T02:52:58;11.40;99.90
7704;DHT22;3894;49.700;10.770;2023-04-24T02:55:24;11.30;99.90
7704;DHT22;3894;49.700;10.770;2023-04-24T02:57:50;11.30;99.90
7704;DHT22;3894;49.700;10.770;2023-04-24T03:00:16;11.30;99.90
7704;DHT22;3894;49.700;10.770;2023-04-24T03:02:44;11.30;99.90
7704;DHT22;3894;49.700;10.770;2023-04-24T03:05:10;11.30;99.90
7704;DHT22;3894;49.700;10.770;2023-04-24T03:07:37;11.30;99.90
7704;DHT22;3894;49.700;10.770;2023-04-24T03:10:04;11.30;99.90
7704;DHT22;3894;49.700;10.770;2023-04-24T03:12:31;11.30;99.90
7704;DHT22;3894;49.700;10.770;2023-04-24T03:14:57;11.30;99.90
7704;DHT22;3894;49.700;10.770;2023-04-24T03:17:28;11.10;99.90
7704;DHT22;3894;49.700;10.770;2023-04-24T03:19:57;11.10;99.90
7704;DHT22;3894;49.700;10.770;2023-04-24T03:22:22;11.10;99.90
7704;DHT22;3894;49.700;10.770;2023-04-24T03:24:51;11.10;99.90
7704;DHT22;3894;49.700;10.770;2023-04-24T03:27:16;11.10;99.90
7704;DHT22;3894;49.700;10.770;2023-04-24T03:29:42;11.10;99.90
7704;DHT22;3894;49.700;10.770;2023-04-24T03:32:08;11.10;99.90
7704;DHT22;3894;49.700;10.770;2023-04-24T03:34:33;11.20;99.90
7704;DHT22;3894;49.700;10.770;2023-04-24T03:37:00;11.20;99.90
7704;DHT22;3894;49.700;10.770;2023-04-24T03:39:28;11.20;99.90
7704;DHT22;3894;49.700;10.770;2023-04-24T03:41:54;11.20;99.90
7704;DHT22;3894;49.700;10.770;2023-04-24T03:44:22;11.20;99.90
7704;DHT22;3894;49.700;10.770;2023-04-24T03:46:53;11.20;99.90
7704;DHT22;3894;49.700;10.770;2023-04-24T03:49:19;11.20;99.90
7704;DHT22;3894;49.700;10.770;2023-04-24T03:51:45;11.30;99.90
7704;DHT22;3894;49.700;10.770;2023-04-24T03:54:11;11.20;99.90
7704;DHT22;3894;49.700;10.770;2023-04-24T03:56:37;11.20;99.90
7704;DHT22;3894;49.700;10.770;2023-04-24T03:59:02;11.20;99.90
7704;DHT22;3894;49.700;10.770;2023-04-24T04:01:28;11.20;99.90
7704;DHT22;3894;49.700;10.770;2023-04-24T04:03:54;11.10;99.90
7704;DHT22;3894;49.700;10.770;2023-04-24T04:06:22;11.10;99.90
7704;DHT22;3894;49.700;10.770;2023-04-24T04:08:48;11.10;99.90
7704;DHT22;3894;49.700;10.770;2023-04-24T04:11:14;11.10;99.90
7704;DHT22;3894;49.700;10.770;2023-04-24T04:13:40;11.00;99.90
7704;DHT22;3894;49.700;10.770;2023-04-24T04:16:05;11.00;99.90
7704;DHT22;3894;49.700;10.770;2023-04-24T04:18:31;11.00;99.90
7704;DHT22;3894;49.700;10.770;2023-04-24T04:20:57;10.90;99.90
7704;DHT22;3894;49.700;10.770;2023-04-24T04:23:26;10.90;99.90
7704;DHT22;3894;49.700;10.770;2023-04-24T04:25:53;10.80;99.90
7704;DHT22;3894;49.700;10.770;2023-04-24T04:28:20;10.90;99.90
7704;DHT22;3894;49.700;10.770;2023-04-24T04:30:46;10.90;99.90
7704;DHT22;3894;49.700;10.770;2023-04-24T04:33:15;11.00;99.90
7704;DHT22;3894;49.700;10.770;2023-04-24T04:35:41;11.00;99.90
7704;DHT22;3894;49.700;10.770;2023-04-24T04:38:07;11.00;99.90
7704;DHT22;3894;49.700;10.770;2023-04-24T04:40:36;11.00;99.90
7704;DHT22;3894;49.700;10.770;2023-04-24T04:43:02;11.10;99.90
7704;DHT22;3894;49.700;10.770;2023-04-24T04:45:27;11.10;99.90
7704;DHT22;3894;49.700;10.770;2023-04-24T04:47:54;11.10;99.90
7704;DHT22;3894;49.700;10.770;2023-04-24T04:50:20;11.10;99.90
7704;DHT22;3894;49.700;10.770;2023-04-24T04:52:46;11.10;99.90
7704;DHT22;3894;49.700;10.770;2023-04-24T04:55:11;11.10;99.90
7704;DHT22;3894;49.700;10.770;2023-04-24T04:57:39;11.20;99.90
7704;DHT22;3894;49.700;10.770;2023-04-24T05:00:08;11.30;99.90
7704;DHT22;3894;49.700;10.770;2023-04-24T05:02:36;11.30;99.90
7704;DHT22;3894;49.700;10.770;2023-04-24T05:05:05;11.20;99.90
7704;DHT22;3894;49.700;10.770;2023-04-24T05:07:31;11.30;99.90
7704;DHT22;3894;49.700;10.770;2023-04-24T05:09:57;11.30;99.90
7704;DHT22;3894;49.700;10.770;2023-04-24T05:12:23;11.30;99.90
7704;DHT22;3894;49.700;10.770;2023-04-24T05:14:49;11.30;99.90
7704;DHT22;3894;49.700;10.770;2023-04-24T05:17:17;11.40;99.90
7704;DHT22;3894;49.700;10.770;2023-04-24T05:19:43;11.40;99.90
7704;DHT22;3894;49.700;10.770;2023-04-24T05:22:12;11.30;99.90
7704;DHT22;3894;49.700;10.770;2023-04-24T05:24:38;11.40;99.90
7704;DHT22;3894;49.700;10.770;2023-04-24T05:27:06;11.40;99.90
7704;DHT22;3894;49.700;10.770;2023-04-24T05:29:35;11.40;99.90
7704;DHT22;3894;49.700;10.770;2023-04-24T05:32:03;11.40;99.90
7704;DHT22;3894;49.700;10.770;2023-04-24T05:34:32;11.40;99.90
7704;DHT22;3894;49.700;10.770;2023-04-24T05:36:58;11.30;99.90
7704;DHT22;3894;49.700;10.770;2023-04-24T05:39:26;11.30;99.90
7704;DHT22;3894;49.700;10.770;2023-04-24T05:41:55;11.30;99.90
7704;DHT22;3894;49.700;10.770;2023-04-24T05:44:23;11.30;99.90
7704;DHT22;3894;49.700;10.770;2023-04-24T05:46:49;11.30;99.90
7704;DHT22;3894;49.700;10.770;2023-04-24T05:49:14;11.30;99.90
7704;DHT22;3894;49.700;10.770;2023-04-24T05:51:40;11.30;99.90
7704;DHT22;3894;49.700;10.770;2023-04-24T05:54:06;11.20;99.90
7704;DHT22;3894;49.700;10.770;2023-04-24T05:56:32;11.10;99.90
7704;DHT22;3894;49.700;10.770;2023-04-24T05:58:58;11.00;99.90
7704;DHT22;3894;49.700;10.770;2023-04-24T06:01:23;11.00;99.90
7704;DHT22;3894;49.700;10.770;2023-04-24T06:03:50;11.00;99.90
7704;DHT22;3894;49.700;10.770;2023-04-24T06:06:16;11.00;99.90
7704;DHT22;3894;49.700;10.770;2023-04-24T06:08:47;10.80;99.90
7704;DHT22;3894;49.700;10.770;2023-04-24T06:11:12;10.80;99.90
7704;DHT22;3894;49.700;10.770;2023-04-24T06:13:38;10.70;99.90
7704;DHT22;3894;49.700;10.770;2023-04-24T06:16:04;10.70;99.90
7704;DHT22;3894;49.700;10.770;2023-04-24T06:18:30;10.70;99.90
7704;DHT22;3894;49.700;10.770;2023-04-24T06:20:56;10.70;99.90
7704;DHT22;3894;49.700;10.770;2023-04-24T06:23:22;10.70;99.90
7704;DHT22;3894;49.700;10.770;2023-04-24T06:25:51;10.70;99.90
7704;DHT22;3894;49.700;10.770;2023-04-24T06:28:19;10.70;99.90
7704;DHT22;3894;49.700;10.770;2023-04-24T06:30:48;10.70;99.90
7704;DHT22;3894;49.700;10.770;2023-04-24T06:33:25;10.70;99.90
7704;DHT22;3894;49.700;10.770;2023-04-24T06:35:53;10.70;99.90
7704;DHT22;3894;49.700;10.770;2023-04-24T06:38:20;10.70;99.90
7704;DHT22;3894;49.700;10.770;2023-04-24T06:40:51;10.60;99.90
7704;DHT22;3894;49.700;10.770;2023-04-24T06:43:17;10.60;99.90
7704;DHT22;3894;49.700;10.770;2023-04-24T06:45:43;10.60;99.90
7704;DHT22;3894;49.700;10.770;2023-04-24T06:48:09;10.70;99.90
7704;DHT22;3894;49.700;10.770;2023-04-24T06:50:35;10.70;99.90
7704;DHT22;3894;49.700;10.770;2023-04-24T06:53:01;10.70;99.90
7704;DHT22;3894;49.700;10.770;2023-04-24T06:55:27;10.80;99.90
7704;DHT22;3894;49.700;10.770;2023-04-24T06:57:55;10.90;99.90
7704;DHT22;3894;49.700;10.770;2023-04-24T07:00:21;11.00;99.90
7704;DHT22;3894;49.700;10.770;2023-04-24T07:02:46;10.90;99.90
7704;DHT22;3894;49.700;10.770;2023-04-24T07:05:15;11.00;99.90
7704;DHT22;3894;49.700;10.770;2023-04-24T07:07:40;11.00;99.90
7704;DHT22;3894;49.700;10.770;2023-04-24T07:10:10;11.10;99.90
7704;DHT22;3894;49.700;10.770;2023-04-24T07:12:45;11.20;99.90
7704;DHT22;3894;49.700;10.770;2023-04-24T07:15:13;11.30;99.90
7704;DHT22;3894;49.700;10.770;2023-04-24T07:17:47;11.40;99.90
7704;DHT22;3894;49.700;10.770;2023-04-24T07:20:13;11.60;99.90
7704;DHT22;3894;49.700;10.770;2023-04-24T07:22:40;11.80;99.90
7704;DHT22;3894;49.700;10.770;2023-04-24T07:25:06;11.70;99.90
7704;DHT22;3894;49.700;10.770;2023-04-24T07:27:33;11.50;99.90
7704;DHT22;3894;49.700;10.770;2023-04-24T07:30:02;11.40;99.90
7704;DHT22;3894;49.700;10.770;2023-04-24T07:32:29;11.40;99.90
7704;DHT22;3894;49.700;10.770;2023-04-24T07:34:54;11.60;99.90
7704;DHT22;3894;49.700;10.770;2023-04-24T07:37:26;12.10;99.90
7704;DHT22;3894;49.700;10.770;2023-04-24T07:39:53;12.40;99.90
7704;DHT22;3894;49.700;10.770;2023-04-24T07:42:19;12.50;99.90
7704;DHT22;3894;49.700;10.770;2023-04-24T07:44:44;12.80;99.90
7704;DHT22;3894;49.700;10.770;2023-04-24T07:47:13;12.90;99.90
7704;DHT22;3894;49.700;10.770;2023-04-24T07:49:41;12.90;99.90
7704;DHT22;3894;49.700;10.770;2023-04-24T07:52:08;12.60;99.90
7704;DHT22;3894;49.700;10.770;2023-04-24T07:54:33;12.20;99.90
7704;DHT22;3894;49.700;10.770;2023-04-24T07:56:59;12.00;99.90
7704;DHT22;3894;49.700;10.770;2023-04-24T07:59:26;11.90;99.90
7704;DHT22;3894;49.700;10.770;2023-04-24T08:01:52;11.90;99.90
7704;DHT22;3894;49.700;10.770;2023-04-24T08:04:26;11.80;99.90
7704;DHT22;3894;49.700;10.770;2023-04-24T08:06:51;11.80;99.90
7704;DHT22;3894;49.700;10.770;2023-04-24T08:09:20;11.80;99.90
7704;DHT22;3894;49.700;10.770;2023-04-24T08:11:46;12.00;99.90
7704;DHT22;3894;49.700;10.770;2023-04-24T08:14:14;12.20;99.90
7704;DHT22;3894;49.700;10.770;2023-04-24T08:16:40;12.20;99.90
7704;DHT22;3894;49.700;10.770;2023-04-24T08:19:06;12.20;99.90
7704;DHT22;3894;49.700;10.770;2023-04-24T08:21:34;12.00;99.90
7704;DHT22;3894;49.700;10.770;2023-04-24T08:24:00;12.20;99.90
7704;DHT22;3894;49.700;10.770;2023-04-24T08:26:30;12.40;99.90
7704;DHT22;3894;49.700;10.770;2023-04-24T08:28:56;12.30;99.90
7704;DHT22;3894;49.700;10.770;2023-04-24T08:31:25;12.10;99.90
7704;DHT22;3894;49.700;10.770;2023-04-24T08:33:51;11.80;99.90
7704;DHT22;3894;49.700;10.770;2023-04-24T08:36:19;11.80;99.90
7704;DHT22;3894;49.700;10.770;2023-04-24T08:38:45;12.00;99.90
7704;DHT22;3894;49.700;10.770;2023-04-24T08:41:14;12.10;99.90
7704;DHT22;3894;49.700;10.770;2023-04-24T08:43:41;12.00;99.90
7704;DHT22;3894;49.700;10.770;2023-04-24T08:46:10;11.90;99.90
7704;DHT22;3894;49.700;10.770;2023-04-24T08:48:38;11.80;99.90
7704;DHT22;3894;49.700;10.770;2023-04-24T08:51:09;11.80;99.90
7704;DHT22;3894;49.700;10.770;2023-04-24T08:53:35;11.90;99.90
7704;DHT22;3894;49.700;10.770;2023-04-24T08:56:02;12.10;99.90
7704;DHT22;3894;49.700;10.770;2023-04-24T08:58:31;12.10;99.90
7704;DHT22;3894;49.700;10.770;2023-04-24T09:01:00;12.20;99.90
7704;DHT22;3894;49.700;10.770;2023-04-24T09:03:28;12.30;99.90
7704;DHT22;3894;49.700;10.770;2023-04-24T09:05:55;12.30;99.90
7704;DHT22;3894;49.700;10.770;2023-04-24T09:08:28;12.30;99.90
7704;DHT22;3894;49.700;10.770;2023-04-24T09:10:54;12.40;99.90
7704;DHT22;3894;49.700;10.770;2023-04-24T09:13:20;12.60;99.90
7704;DHT22;3894;49.700;10.770;2023-04-24T09:15:46;12.70;99.90
7704;DHT22;3894;49.700;10.770;2023-04-24T09:18:15;12.80;99.90
7704;DHT22;3894;49.700;10.770;2023-04-24T09:21:12;12.90;99.90
7704;DHT22;3894;49.700;10.770;2023-04-24T09:23:47;12.70;99.90
7704;DHT22;3894;49.700;10.770;2023-04-24T09:26:22;12.90;99.90
7704;DHT22;3894;49.700;10.770;2023-04-24T09:28:51;13.10;99.90
7704;DHT22;3894;49.700;10.770;2023-04-24T09:31:19;13.20;99.90
7704;DHT22;3894;49.700;10.770;2023-04-24T09:34:04;13.10;99.90
7704;DHT22;3894;49.700;10.770;2023-04-24T09:36:37;13.20;99.90
7704;DHT22;3894;49.700;10.770;2023-04-24T09:39:09;13.10;99.90
7704;DHT22;3894;49.700;10.770;2023-04-24T09:41:53;13.00;99.90
7704;DHT22;3894;49.700;10.770;2023-04-24T09:44:22;12.60;99.90
7704;DHT22;3894;49.700;10.770;2023-04-24T09:46:56;12.50;99.90
7704;DHT22;3894;49.700;10.770;2023-04-24T09:49:29;12.30;99.90
7704;DHT22;3894;49.700;10.770;2023-04-24T09:52:06;12.10;99.90
7704;DHT22;3894;49.700;10.770;2023-04-24T09:54:35;12.00;99.90
7704;DHT22;3894;49.700;10.770;2023-04-24T09:57:07;11.90;99.90
7704;DHT22;3894;49.700;10.770;2023-04-24T09:59:33;11.90;99.90
7704;DHT22;3894;49.700;10.770;2023-04-24T10:02:15;11.80;99.90
7704;DHT22;3894;49.700;10.770;2023-04-24T10:04:53;11.50;99.90
7704;DHT22;3894;49.700;10.770;2023-04-24T10:07:20;11.00;99.90
7704;DHT22;3894;49.700;10.770;2023-04-24T10:09:48;10.70;99.90
7704;DHT22;3894;49.700;10.770;2023-04-24T10:12:17;10.70;99.90
7704;DHT22;3894;49.700;10.770;2023-04-24T10:14:48;10.70;99.90
7704;DHT22;3894;49.700;10.770;2023-04-24T10:17:14;10.90;99.90
7704;DHT22;3894;49.700;10.770;2023-04-24T10:19:40;11.10;99.90
7704;DHT22;3894;49.700;10.770;2023-04-24T10:22:07;11.10;99.90
7704;DHT22;3894;49.700;10.770;2023-04-24T10:24:33;11.30;99.90
7704;DHT22;3894;49.700;10.770;2023-04-24T10:27:05;11.20;99.90
7704;DHT22;3894;49.700;10.770;2023-04-24T10:29:35;11.40;99.90
7704;DHT22;3894;49.700;10.770;2023-04-24T10:32:02;11.60;99.90
7704;DHT22;3894;49.700;10.770;2023-04-24T10:34:28;11.90;99.90
7704;DHT22;3894;49.700;10.770;2023-04-24T10:36:54;11.90;99.90
7704;DHT22;3894;49.700;10.770;2023-04-24T10:39:21;11.90;99.90
7704;DHT22;3894;49.700;10.770;2023-04-24T10:41:49;12.30;99.90
7704;DHT22;3894;49.700;10.770;2023-04-24T10:44:18;12.50;99.90
7704;DHT22;3894;49.700;10.770;2023-04-24T10:46:53;12.40;99.90
7704;DHT22;3894;49.700;10.770;2023-04-24T10:49:28;12.30;99.90
7704;DHT22;3894;49.700;10.770;2023-04-24T10:51:54;12.20;99.90
7704;DHT22;3894;49.700;10.770;2023-04-24T10:56:53;13.20;99.90
7704;DHT22;3894;49.700;10.770;2023-04-24T10:59:25;13.10;99.90
7704;DHT22;3894;49.700;10.770;2023-04-24T11:01:57;13.40;99.90
7704;DHT22;3894;49.700;10.770;2023-04-24T11:04:32;13.30;99.90
7704;DHT22;3894;49.700;10.770;2023-04-24T11:07:03;13.00;99.90
7704;DHT22;3894;49.700;10.770;2023-04-24T11:09:35;12.90;99.90
7704;DHT22;3894;49.700;10.770;2023-04-24T11:12:11;12.70;99.90
7704;DHT22;3894;49.700;10.770;2023-04-24T11:17:35;12.50;99.90
7704;DHT22;3894;49.700;10.770;2023-04-24T11:20:08;12.50;99.90
7704;DHT22;3894;49.700;10.770;2023-04-24T11:22:36;12.60;99.90
7704;DHT22;3894;49.700;10.770;2023-04-24T11:25:03;12.80;99.90
7704;DHT22;3894;49.700;10.770;2023-04-24T11:27:31;12.70;99.90
7704;DHT22;3894;49.700;10.770;2023-04-24T11:30:03;12.70;99.90
7704;DHT22;3894;49.700;10.770;2023-04-24T11:32:37;12.70;99.90
7704;DHT22;3894;49.700;10.770;2023-04-24T11:35:06;12.80;99.90
7704;DHT22;3894;49.700;10.770;2023-04-24T11:37:38;12.90;99.90
7704;DHT22;3894;49.700;10.770;2023-04-24T11:40:09;13.00;99.90
7704;DHT22;3894;49.700;10.770;2023-04-24T11:42:36;13.00;99.90
7704;DHT22;3894;49.700;10.770;2023-04-24T11:45:13;13.10;99.90
7704;DHT22;3894;49.700;10.770;2023-04-24T11:47:40;13.20;99.90
7704;DHT22;3894;49.700;10.770;2023-04-24T11:50:15;13.40;99.90
7704;DHT22;3894;49.700;10.770;2023-04-24T11:52:46;13.70;99.90
7704;DHT22;3894;49.700;10.770;2023-04-24T11:57:51;13.30;99.90
7704;DHT22;3894;49.700;10.770;2023-04-24T12:00:22;13.00;99.90
7704;DHT22;3894;49.700;10.770;2023-04-24T12:02:49;12.90;99.90
7704;DHT22;3894;49.700;10.770;2023-04-24T12:05:28;13.00;99.90
7704;DHT22;3894;49.700;10.770;2023-04-24T12:07:56;12.70;99.90
7704;DHT22;3894;49.700;10.770;2023-04-24T12:10:26;12.50;99.90
7704;DHT22;3894;49.700;10.770;2023-04-24T12:12:53;12.30;99.90
7704;DHT22;3894;49.700;10.770;2023-04-24T12:15:21;12.20;99.90
7704;DHT22;3894;49.700;10.770;2023-04-24T12:17:48;12.20;99.90
7704;DHT22;3894;49.700;10.770;2023-04-24T12:20:15;12.10;99.90
7704;DHT22;3894;49.700;10.770;2023-04-24T12:22:55;12.00;99.90
7704;DHT22;3894;49.700;10.770;2023-04-24T12:25:26;12.20;99.90
7704;DHT22;3894;49.700;10.770;2023-04-24T12:27:54;12.20;99.90
7704;DHT22;3894;49.700;10.770;2023-04-24T12:30:21;12.20;99.90
7704;DHT22;3894;49.700;10.770;2023-04-24T12:32:48;12.30;99.90
7704;DHT22;3894;49.700;10.770;2023-04-24T12:35:25;12.30;99.90
7704;DHT22;3894;49.700;10.770;2023-04-24T12:37:51;12.50;99.90
7704;DHT22;3894;49.700;10.770;2023-04-24T12:40:20;13.10;99.90
7704;DHT22;3894;49.700;10.770;2023-04-24T12:42:51;13.00;99.90
7704;DHT22;3894;49.700;10.770;2023-04-24T12:45:19;12.60;99.90
7704;DHT22;3894;49.700;10.770;2023-04-24T12:47:48;12.50;99.90
7704;DHT22;3894;49.700;10.770;2023-04-24T12:50:15;12.40;99.90
7704;DHT22;3894;49.700;10.770;2023-04-24T12:52:42;12.20;99.90
7704;DHT22;3894;49.700;10.770;2023-04-24T12:55:08;12.10;99.90
7704;DHT22;3894;49.700;10.770;2023-04-24T12:57:35;12.10;99.90
7704;DHT22;3894;49.700;10.770;2023-04-24T13:00:02;12.00;99.90
7704;DHT22;3894;49.700;10.770;2023-04-24T13:02:29;11.90;99.90
7704;DHT22;3894;49.700;10.770;2023-04-24T13:04:57;11.80;99.90
7704;DHT22;3894;49.700;10.770;2023-04-24T13:07:25;11.90;99.90
7704;DHT22;3894;49.700;10.770;2023-04-24T13:09:52;12.00;99.90
7704;DHT22;3894;49.700;10.770;2023-04-24T13:12:18;11.90;99.90
7704;DHT22;3894;49.700;10.770;2023-04-24T13:14:49;12.00;99.90
7704;DHT22;3894;49.700;10.770;2023-04-24T13:17:15;12.10;99.90
7704;DHT22;3894;49.700;10.770;2023-04-24T13:19:44;12.20;99.90
7704;DHT22;3894;49.700;10.770;2023-04-24T13:22:12;12.30;99.90
7704;DHT22;3894;49.700;10.770;2023-04-24T13:24:38;12.50;99.90
7704;DHT22;3894;49.700;10.770;2023-04-24T13:27:10;12.80;99.90
7704;DHT22;3894;49.700;10.770;2023-04-24T13:29:40;13.20;99.90
7704;DHT22;3894;49.700;10.770;2023-04-24T13:32:06;13.30;99.90
7704;DHT22;3894;49.700;10.770;2023-04-24T13:34:31;13.20;99.90
7704;DHT22;3894;49.700;10.770;2023-04-24T13:36:58;13.30;99.90
7704;DHT22;3894;49.700;10.770;2023-04-24T13:39:27;13.60;99.90
7704;DHT22;3894;49.700;10.770;2023-04-24T13:41:56;13.70;99.90
7704;DHT22;3894;49.700;10.770;2023-04-24T13:44:25;13.80;99.90
7704;DHT22;3894;49.700;10.770;2023-04-24T13:46:53;13.50;99.90
7704;DHT22;3894;49.700;10.770;2023-04-24T13:49:23;13.40;99.90
7704;DHT22;3894;49.700;10.770;2023-04-24T13:51:57;13.30;99.90
7704;DHT22;3894;49.700;10.770;2023-04-24T13:54:25;13.20;99.90
7704;DHT22;3894;49.700;10.770;2023-04-24T13:56:51;13.10;99.90
7704;DHT22;3894;49.700;10.770;2023-04-24T13:59:20;13.10;99.90
7704;DHT22;3894;49.700;10.770;2023-04-24T14:01:49;13.00;99.90
7704;DHT22;3894;49.700;10.770;2023-04-24T14:04:17;12.90;99.90
7704;DHT22;3894;49.700;10.770;2023-04-24T14:06:44;12.90;99.90
7704;DHT22;3894;49.700;10.770;2023-04-24T14:09:09;12.80;99.90
7704;DHT22;3894;49.700;10.770;2023-04-24T14:11:35;12.70;99.90
7704;DHT22;3894;49.700;10.770;2023-04-24T14:14:01;12.70;99.90
7704;DHT22;3894;49.700;10.770;2023-04-24T14:19:12;12.50;99.90
7704;DHT22;3894;49.700;10.770;2023-04-24T14:21:38;12.50;99.90
7704;DHT22;3894;49.700;10.770;2023-04-24T14:24:04;12.40;99.90
7704;DHT22;3894;49.700;10.770;2023-04-24T14:26:38;12.40;99.90
7704;DHT22;3894;49.700;10.770;2023-04-24T14:29:04;12.30;99.90
7704;DHT22;3894;49.700;10.770;2023-04-24T14:31:32;12.30;99.90
7704;DHT22;3894;49.700;10.770;2023-04-24T14:34:11;12.30;99.90
7704;DHT22;3894;49.700;10.770;2023-04-24T14:36:37;12.60;99.90
7704;DHT22;3894;49.700;10.770;2023-04-24T14:39:03;12.90;99.90
7704;DHT22;3894;49.700;10.770;2023-04-24T14:41:38;13.10;99.90
7704;DHT22;3894;49.700;10.770;2023-04-24T14:44:04;13.10;99.90
7704;DHT22;3894;49.700;10.770;2023-04-24T14:46:33;13.10;99.90
7704;DHT22;3894;49.700;10.770;2023-04-24T14:49:01;13.10;99.90
7704;DHT22;3894;49.700;10.770;2023-04-24T14:51:29;13.10;99.90
7704;DHT22;3894;49.700;10.770;2023-04-24T14:53:58;13.00;99.90
7704;DHT22;3894;49.700;10.770;2023-04-24T14:56:27;12.90;99.90
7704;DHT22;3894;49.700;10.770;2023-04-24T14:58:53;12.80;99.90
7704;DHT22;3894;49.700;10.770;2023-04-24T15:01:18;12.70;99.90
7704;DHT22;3894;49.700;10.770;2023-04-24T15:03:52;12.50;99.90
7704;DHT22;3894;49.700;10.770;2023-04-24T15:06:33;12.40;99.90
7704;DHT22;3894;49.700;10.770;2023-04-24T15:09:07;12.30;99.90
7704;DHT22;3894;49.700;10.770;2023-04-24T15:11:33;12.30;99.90
7704;DHT22;3894;49.700;10.770;2023-04-24T15:13:59;12.20;99.90
7704;DHT22;3894;49.700;10.770;2023-04-24T15:16:25;12.10;99.90
7704;DHT22;3894;49.700;10.770;2023-04-24T15:18:58;12.10;99.90
7704;DHT22;3894;49.700;10.770;2023-04-24T15:21:27;12.10;99.90
7704;DHT22;3894;49.700;10.770;2023-04-24T15:23:53;12.00;99.90
7704;DHT22;3894;49.700;10.770;2023-04-24T15:26:25;11.80;99.90
7704;DHT22;3894;49.700;10.770;2023-04-24T15:31:48;10.90;99.90
7704;DHT22;3894;49.700;10.770;2023-04-24T15:34:14;10.80;99.90
7704;DHT22;3894;49.700;10.770;2023-04-24T15:36:40;10.70;99.90
7704;DHT22;3894;49.700;10.770;2023-04-24T15:39:06;10.70;99.90
7704;DHT22;3894;49.700;10.770;2023-04-24T15:41:31;10.70;99.90
7704;DHT22;3894;49.700;10.770;2023-04-24T15:43:57;10.80;99.90
7704;DHT22;3894;49.700;10.770;2023-04-24T15:46:26;10.80;99.90
7704;DHT22;3894;49.700;10.770;2023-04-24T15:48:52;10.90;99.90
7704;DHT22;3894;49.700;10.770;2023-04-24T15:51:21;10.90;99.90
7704;DHT22;3894;49.700;10.770;2023-04-24T15:53:46;11.00;99.90
7704;DHT22;3894;49.700;10.770;2023-04-24T15:56:16;11.10;99.90
7704;DHT22;3894;49.700;10.770;2023-04-24T15:58:42;11.20;99.90
7704;DHT22;3894;49.700;10.770;2023-04-24T16:01:07;11.20;99.90
7704;DHT22;3894;49.700;10.770;2023-04-24T16:03:33;11.30;99.90